createdAt,value
2023-01-19T00:00:15.450Z,86.56
2023-01-19T00:03:38.319Z,86.95
2023-01-19T00:06:41.205Z,86.73
2023-01-19T00:09:44.512Z,86.51
2023-01-19T00:12:47.355Z,86.60
2023-01-19T00:15:50.306Z,86.89
2023-01-19T00:18:53.649Z,86.71
2023-01-19T00:21:56.643Z,86.94
2023-01-19T00:24:59.651Z,87.26
2023-01-19T00:28:02.546Z,86.93
2023-01-19T00:31:05.699Z,87.19
2023-01-19T00:34:08.911Z,87.09
2023-01-19T00:37:12.214Z,86.93
2023-01-19T00:40:15.156Z,86.82
2023-01-19T00:43:18.048Z,87.33
2023-01-19T00:46:20.905Z,87.11
2023-01-19T00:49:23.748Z,87.46
2023-01-19T00:52:26.654Z,87.26
2023-01-19T00:55:31.621Z,87.29
2023-01-19T00:58:34.576Z,87.27
2023-01-19T01:01:45.906Z,87.18
2023-01-19T01:04:54.829Z,87.35
2023-01-19T01:07:57.734Z,87.42
2023-01-19T01:11:00.972Z,87.40
2023-01-19T01:14:03.838Z,87.61
2023-01-19T01:17:11.371Z,87.44
2023-01-19T01:20:19.215Z,87.34
2023-01-19T01:23:23.136Z,87.44
2023-01-19T01:26:27.791Z,87.23
2023-01-19T01:29:30.751Z,87.43
2023-01-19T01:32:33.901Z,87.14
2023-01-19T01:35:37.171Z,87.38
2023-01-19T01:38:41.455Z,87.58
2023-01-19T01:41:44.707Z,87.43
2023-01-19T01:44:51.494Z,87.35
2023-01-19T01:47:57.619Z,87.40
2023-01-19T01:51:24.285Z,87.16
2023-01-19T01:54:32.107Z,87.25
2023-01-19T01:57:39.475Z,86.83
2023-01-19T02:01:01.580Z,86.99
2023-01-19T02:04:04.749Z,87.14
2023-01-19T02:07:26.419Z,87.09
2023-01-19T02:10:48.130Z,87.07
2023-01-19T02:13:51.346Z,87.03
2023-01-19T02:16:54.432Z,86.95
2023-01-19T02:19:58.225Z,86.98
2023-01-19T02:23:05.884Z,87.02
2023-01-19T02:26:11.571Z,86.96
2023-01-19T02:29:26.143Z,86.95
2023-01-19T02:32:29.489Z,86.89
2023-01-19T02:35:33.023Z,87.09
2023-01-19T02:38:38.628Z,87.00
2023-01-19T02:41:49.141Z,86.94
2023-01-19T02:44:54.748Z,87.06
2023-01-19T02:47:57.648Z,87.16
2023-01-19T02:51:04.696Z,87.11
2023-01-19T02:54:23.206Z,87.46
2023-01-19T02:57:32.137Z,87.59
2023-01-19T03:00:52.553Z,87.17
2023-01-19T03:04:10.165Z,87.37
2023-01-19T03:07:38.482Z,87.50
2023-01-19T03:11:10.238Z,87.28
2023-01-19T03:14:18.741Z,87.31
2023-01-19T03:17:22.741Z,87.29
2023-01-19T03:20:28.997Z,87.19
2023-01-19T03:23:34.809Z,87.69
2023-01-19T03:26:44.273Z,87.48
2023-01-19T03:29:53.354Z,87.74
2023-01-19T03:33:04.994Z,87.48
2023-01-19T03:36:24.372Z,87.47
2023-01-19T03:39:28.512Z,87.64
2023-01-19T03:42:32.044Z,87.60
2023-01-19T03:45:38.830Z,87.83
2023-01-19T03:48:42.229Z,87.41
2023-01-19T03:51:45.820Z,87.56
2023-01-19T03:54:49.349Z,87.67
2023-01-19T03:57:52.241Z,87.75
2023-01-19T04:00:55.161Z,87.53
2023-01-19T04:03:58.002Z,87.73
2023-01-19T04:07:01.459Z,87.33
2023-01-19T04:10:04.810Z,87.57
2023-01-19T04:13:07.663Z,87.23
2023-01-19T04:16:12.018Z,87.16
2023-01-19T04:19:15.109Z,87.11
2023-01-19T04:22:17.950Z,87.42
2023-01-19T04:25:21.688Z,87.29
2023-01-19T04:28:25.032Z,87.20
2023-01-19T04:31:28.046Z,87.28
2023-01-19T04:34:30.952Z,87.35
2023-01-19T04:37:33.775Z,87.20
2023-01-19T04:40:36.695Z,87.59
2023-01-19T04:43:39.657Z,87.48
2023-01-19T04:46:42.653Z,87.43
2023-01-19T04:49:46.019Z,87.76
2023-01-19T04:52:49.234Z,87.84
2023-01-19T04:55:55.553Z,88.23
2023-01-19T04:58:58.451Z,88.35
2023-01-19T05:02:01.384Z,88.51
2023-01-19T05:05:04.948Z,88.90
2023-01-19T05:08:07.809Z,89.41
2023-01-19T05:11:10.784Z,90.07
2023-01-19T05:14:13.617Z,90.02
2023-01-19T05:17:16.595Z,90.61
2023-01-19T05:20:19.534Z,90.66
2023-01-19T05:23:22.487Z,90.75
2023-01-19T05:26:25.445Z,90.62
2023-01-19T05:29:28.299Z,90.47
2023-01-19T05:32:31.477Z,90.13
2023-01-19T05:35:36.452Z,90.27
2023-01-19T05:38:39.480Z,89.94
2023-01-19T05:41:42.301Z,89.80
2023-01-19T05:44:45.151Z,89.77
2023-01-19T05:47:48.184Z,89.96
2023-01-19T05:50:51.619Z,89.61
2023-01-19T05:53:55.258Z,89.63
2023-01-19T05:56:58.337Z,89.46
2023-01-19T06:00:01.183Z,89.43
2023-01-19T06:03:05.013Z,89.40
2023-01-19T06:06:08.314Z,89.38
2023-01-19T06:09:11.464Z,89.59
2023-01-19T06:12:14.405Z,89.65
2023-01-19T06:15:17.469Z,89.54
2023-01-19T06:18:20.400Z,89.59
2023-01-19T06:21:23.260Z,89.73
2023-01-19T06:24:26.581Z,89.64
2023-01-19T06:27:29.584Z,89.58
2023-01-19T06:30:32.508Z,89.42
2023-01-19T06:33:35.442Z,89.62
2023-01-19T06:36:38.924Z,89.41
2023-01-19T06:39:42.392Z,89.31
2023-01-19T06:42:45.238Z,89.58
2023-01-19T06:45:48.349Z,89.57
2023-01-19T06:48:51.329Z,89.29
2023-01-19T06:51:54.187Z,89.31
2023-01-19T06:54:57.064Z,89.22
2023-01-19T06:58:00.052Z,89.24
2023-01-19T07:01:06.790Z,89.46
2023-01-19T07:04:14.144Z,89.39
2023-01-19T07:07:17.219Z,89.03
2023-01-19T07:10:20.143Z,88.89
2023-01-19T07:13:23.030Z,88.88
2023-01-19T07:16:26.194Z,89.29
2023-01-19T07:19:29.055Z,89.31
2023-01-19T07:22:31.866Z,89.99
2023-01-19T07:25:34.906Z,90.20
2023-01-19T07:28:37.957Z,89.96
2023-01-19T07:31:40.987Z,90.24
2023-01-19T07:34:43.949Z,90.30
2023-01-19T07:37:47.116Z,90.57
2023-01-19T07:40:50.104Z,90.55
2023-01-19T07:43:53.323Z,90.28
2023-01-19T07:46:56.575Z,90.26
2023-01-19T07:49:59.540Z,90.58
2023-01-19T07:53:07.280Z,90.35
2023-01-19T07:56:10.764Z,90.12
2023-01-19T07:59:13.821Z,90.07
2023-01-19T08:02:17.439Z,89.94
2023-01-19T08:05:21.212Z,89.93
2023-01-19T08:08:24.111Z,89.84
2023-01-19T08:11:27.040Z,89.69
2023-01-19T08:14:30.040Z,89.70
2023-01-19T08:17:32.886Z,89.92
2023-01-19T08:20:36.611Z,90.07
2023-01-19T08:23:39.650Z,89.82
2023-01-19T08:26:42.573Z,90.04
2023-01-19T08:29:45.753Z,89.99
2023-01-19T08:32:48.739Z,90.12
2023-01-19T08:35:53.921Z,89.83
2023-01-19T08:38:57.085Z,89.88
2023-01-19T08:42:00.970Z,89.77
2023-01-19T08:45:04.184Z,89.83
2023-01-19T08:48:07.092Z,89.80
2023-01-19T08:51:10.195Z,89.78
2023-01-19T08:54:14.206Z,89.93
2023-01-19T08:57:17.152Z,89.94
2023-01-19T09:00:21.386Z,90.07
2023-01-19T09:03:24.438Z,90.21
2023-01-19T09:06:28.518Z,90.28
2023-01-19T09:09:31.490Z,90.64
2023-01-19T09:12:34.462Z,90.59
2023-01-19T09:15:38.869Z,90.65
2023-01-19T09:18:42.299Z,90.78
2023-01-19T09:21:45.324Z,90.83
2023-01-19T09:24:48.328Z,91.18
2023-01-19T09:27:51.523Z,91.07
2023-01-19T09:30:54.769Z,91.29
2023-01-19T09:33:57.757Z,91.32
2023-01-19T09:37:00.693Z,91.22
2023-01-19T09:40:05.637Z,91.51
2023-01-19T09:43:39.115Z,91.52
2023-01-19T09:46:42.382Z,91.47
2023-01-19T09:49:51.303Z,91.70
2023-01-19T09:53:01.632Z,91.70
2023-01-19T09:56:05.116Z,91.81
2023-01-19T09:59:32.120Z,91.70
2023-01-19T10:02:44.914Z,91.77
2023-01-19T10:05:55.248Z,91.65
2023-01-19T10:09:10.797Z,91.68
2023-01-19T10:12:39.992Z,91.43
2023-01-19T10:15:47.918Z,91.39
2023-01-19T10:18:57.567Z,91.33
2023-01-19T10:22:23.070Z,91.50
2023-01-19T10:25:27.169Z,91.30
2023-01-19T10:28:30.320Z,91.35
2023-01-19T10:31:36.101Z,91.15
2023-01-19T10:34:39.645Z,91.04
2023-01-19T10:37:44.990Z,91.15
2023-01-19T10:41:19.672Z,91.16
2023-01-19T10:44:29.321Z,91.15
2023-01-19T10:47:36.849Z,90.67
2023-01-19T10:50:40.036Z,90.69
2023-01-19T10:53:52.896Z,90.76
2023-01-19T10:56:59.625Z,90.84
2023-01-19T11:00:03.849Z,90.72
2023-01-19T11:03:30.627Z,90.81
2023-01-19T11:10:15.408Z,90.69
2023-01-19T11:13:18.447Z,90.67
2023-01-19T11:16:29.254Z,90.61
2023-01-19T11:19:33.902Z,90.45
2023-01-19T11:22:36.914Z,90.37
2023-01-19T11:25:40.085Z,90.40
2023-01-19T11:28:48.219Z,90.28
2023-01-19T11:31:52.287Z,90.32
2023-01-19T11:34:55.344Z,90.20
2023-01-19T11:38:19.737Z,89.78
2023-01-19T11:41:30.219Z,89.67
2023-01-19T11:44:39.262Z,89.31
2023-01-19T11:47:45.462Z,89.45
2023-01-19T11:50:50.081Z,89.34
2023-01-19T11:53:53.846Z,89.70
2023-01-19T11:57:00.216Z,89.47
2023-01-19T12:00:17.714Z,89.47
2023-01-19T12:03:44.442Z,89.48
2023-01-19T12:06:51.937Z,89.23
2023-01-19T12:10:02.556Z,89.26
2023-01-19T12:13:05.485Z,89.29
2023-01-19T12:16:20.093Z,89.36
2023-01-19T12:19:34.180Z,89.29
2023-01-19T12:22:49.595Z,89.50
2023-01-19T12:26:14.721Z,89.51
2023-01-19T12:29:20.112Z,89.48
2023-01-19T12:32:33.780Z,89.37
2023-01-19T12:35:57.343Z,89.45
2023-01-19T12:39:11.409Z,89.20
2023-01-19T12:42:17.219Z,89.07
2023-01-19T12:45:26.010Z,89.25
2023-01-19T12:48:32.639Z,89.17
2023-01-19T12:51:35.601Z,89.36
2023-01-19T12:54:43.753Z,88.96
2023-01-19T12:57:53.980Z,88.93
2023-01-19T13:01:19.230Z,88.88
2023-01-19T13:04:40.529Z,89.13
2023-01-19T13:08:07.098Z,89.12
2023-01-19T13:11:16.264Z,88.90
2023-01-19T13:14:37.712Z,89.15
2023-01-19T13:17:54.916Z,89.10
2023-01-19T13:21:09.156Z,88.90
2023-01-19T13:24:23.133Z,88.76
2023-01-19T13:27:46.379Z,88.89
2023-01-19T13:31:00.747Z,88.79
2023-01-19T13:34:05.459Z,89.07
2023-01-19T13:37:17.326Z,89.00
2023-01-19T13:40:30.607Z,89.35
2023-01-19T13:43:37.736Z,89.52
2023-01-19T13:46:41.542Z,89.16
2023-01-19T13:49:46.773Z,89.46
2023-01-19T13:52:51.559Z,89.34
2023-01-19T13:56:23.380Z,89.25
2023-01-19T13:59:26.561Z,89.35
2023-01-19T14:02:30.086Z,89.19
2023-01-19T14:05:43.358Z,89.23
2023-01-19T14:08:46.422Z,89.37
2023-01-19T14:12:16.293Z,89.26
2023-01-19T14:15:19.243Z,89.73
2023-01-19T14:18:22.181Z,89.50
2023-01-19T14:21:25.311Z,89.67
2023-01-19T14:24:30.047Z,89.55
2023-01-19T14:27:33.017Z,89.44
2023-01-19T14:30:36.841Z,89.77
2023-01-19T14:33:46.191Z,89.38
2023-01-19T14:36:51.890Z,89.86
2023-01-19T14:40:08.303Z,89.89
2023-01-19T14:43:13.400Z,89.60
2023-01-19T14:46:20.801Z,90.00
2023-01-19T14:49:40.340Z,89.97
2023-01-19T14:52:57.108Z,90.20
2023-01-19T14:56:04.722Z,89.98
2023-01-19T14:59:11.258Z,90.07
2023-01-19T15:02:15.079Z,90.34
2023-01-19T15:05:18.153Z,90.49
2023-01-19T15:08:30.387Z,90.42
2023-01-19T15:11:35.106Z,90.60
2023-01-19T15:14:38.062Z,90.75
2023-01-19T15:17:41.018Z,90.84
2023-01-19T15:20:43.936Z,90.92
2023-01-19T15:23:47.789Z,91.04
2023-01-19T15:26:50.922Z,90.90
2023-01-19T15:29:54.808Z,90.98
2023-01-19T15:32:59.150Z,91.03
2023-01-19T15:36:02.338Z,91.07
2023-01-19T15:39:05.482Z,91.20
2023-01-19T15:42:15.697Z,91.28
2023-01-19T15:45:33.485Z,90.98
2023-01-19T15:48:37.109Z,91.32
2023-01-19T15:51:40.063Z,91.19
2023-01-19T15:54:43.092Z,91.33
2023-01-19T15:57:47.936Z,91.20
2023-01-19T16:00:56.138Z,91.45
2023-01-19T16:04:01.567Z,91.21
2023-01-19T16:07:05.929Z,91.49
2023-01-19T16:10:18.696Z,91.19
2023-01-19T16:13:21.939Z,91.32
2023-01-19T16:16:28.110Z,91.53
2023-01-19T16:19:31.924Z,91.42
2023-01-19T16:22:35.579Z,91.39
2023-01-19T16:25:38.602Z,91.31
2023-01-19T16:28:41.760Z,91.69
2023-01-19T16:31:46.151Z,91.70
2023-01-19T16:34:49.255Z,91.48
2023-01-19T16:37:52.374Z,91.76
2023-01-19T16:40:55.527Z,91.68
2023-01-19T16:43:59.181Z,91.50
2023-01-19T16:47:02.236Z,91.52
2023-01-19T16:50:06.536Z,91.66
2023-01-19T16:53:09.630Z,91.42
2023-01-19T16:56:14.711Z,91.46
2023-01-19T16:59:18.364Z,91.64
2023-01-19T17:02:21.480Z,91.10
2023-01-19T17:05:24.413Z,91.52
2023-01-19T17:08:49.312Z,91.67
2023-01-19T17:11:57.320Z,91.59
2023-01-19T17:15:01.774Z,91.53
2023-01-19T17:18:05.177Z,91.42
2023-01-19T17:21:10.376Z,91.42
2023-01-19T17:24:13.475Z,91.37
2023-01-19T17:27:17.308Z,91.18
2023-01-19T17:30:20.755Z,91.48
2023-01-19T17:33:25.155Z,91.59
2023-01-19T17:36:31.030Z,91.59
2023-01-19T17:39:34.328Z,91.48
2023-01-19T17:42:42.505Z,91.63
2023-01-19T17:45:45.616Z,91.65
2023-01-19T17:48:53.612Z,91.54
2023-01-19T17:51:56.987Z,91.64
2023-01-19T17:55:00.931Z,91.78
2023-01-19T17:58:04.057Z,91.74
2023-01-19T18:01:13.184Z,91.83
2023-01-19T18:04:16.638Z,91.86
2023-01-19T18:07:20.120Z,91.67
2023-01-19T18:10:23.309Z,91.83
2023-01-19T18:13:27.145Z,92.22
2023-01-19T18:16:31.210Z,92.00
2023-01-19T18:19:34.508Z,92.38
2023-01-19T18:22:37.814Z,91.84
2023-01-19T18:25:41.074Z,91.75
2023-01-19T18:28:44.162Z,91.79
2023-01-19T18:31:48.189Z,92.19
2023-01-19T18:34:54.263Z,92.43
2023-01-19T18:37:58.925Z,92.25
2023-01-19T18:41:06.339Z,92.08
2023-01-19T18:44:10.541Z,91.90
2023-01-19T18:47:13.655Z,92.07
2023-01-19T18:50:18.400Z,91.99
2023-01-19T18:53:21.658Z,92.03
2023-01-19T18:56:25.729Z,91.83
2023-01-19T18:59:28.665Z,92.05
2023-01-19T19:02:33.354Z,91.89
2023-01-19T19:05:37.728Z,92.02
2023-01-19T19:08:40.983Z,92.12
2023-01-19T19:11:44.086Z,91.82
2023-01-19T19:14:47.819Z,91.71
2023-01-19T19:17:50.957Z,91.99
2023-01-19T19:20:54.104Z,91.56
2023-01-19T19:23:58.580Z,91.60
2023-01-19T19:27:01.951Z,91.69
2023-01-19T19:30:06.019Z,91.83
2023-01-19T19:33:09.371Z,91.71
2023-01-19T19:36:12.737Z,91.76
2023-01-19T19:39:15.770Z,91.59
2023-01-19T19:42:18.849Z,92.10
2023-01-19T19:45:21.921Z,92.32
2023-01-19T19:48:26.250Z,92.32
2023-01-19T19:51:29.463Z,92.18
2023-01-19T19:54:33.070Z,92.27
2023-01-19T19:57:36.642Z,92.06
2023-01-19T20:00:39.583Z,92.05
2023-01-19T20:03:43.377Z,92.23
2023-01-19T20:06:48.343Z,92.61
2023-01-19T20:09:53.774Z,91.89
2023-01-19T20:12:56.844Z,92.03
2023-01-19T20:16:10.414Z,92.06
2023-01-19T20:19:13.737Z,91.66
2023-01-19T20:22:17.138Z,91.98
2023-01-19T20:25:20.778Z,91.98
2023-01-19T20:28:23.847Z,91.65
2023-01-19T20:31:32.902Z,92.12
2023-01-19T20:34:36.979Z,92.02
2023-01-19T20:37:41.416Z,92.49
2023-01-19T20:40:44.303Z,92.27
2023-01-19T20:43:47.507Z,92.04
2023-01-19T20:46:50.767Z,91.91
2023-01-19T20:49:53.805Z,91.55
2023-01-19T20:52:56.883Z,91.82
2023-01-19T20:56:07.523Z,91.64
2023-01-19T20:59:11.958Z,91.84
2023-01-19T21:02:16.162Z,92.10
2023-01-19T21:05:19.503Z,92.20
2023-01-19T21:08:23.041Z,91.56
2023-01-19T21:11:26.639Z,92.16
2023-01-19T21:14:30.041Z,92.34
2023-01-19T21:17:33.216Z,92.19
2023-01-19T21:20:36.156Z,91.70
2023-01-19T21:23:39.207Z,91.95
2023-01-19T21:26:42.715Z,91.92
2023-01-19T21:29:48.266Z,91.60
2023-01-19T21:32:51.388Z,91.85
2023-01-19T21:35:57.366Z,91.76
2023-01-19T21:39:01.019Z,92.00
2023-01-19T21:42:04.311Z,91.99
2023-01-19T21:45:08.653Z,91.77
2023-01-19T21:48:12.688Z,92.04
2023-01-19T21:51:16.656Z,91.70
2023-01-19T21:54:19.873Z,91.98
2023-01-19T21:57:24.767Z,91.95
2023-01-19T22:00:31.962Z,91.94
2023-01-19T22:03:35.698Z,92.04
2023-01-19T22:06:39.419Z,92.00
2023-01-19T22:09:43.599Z,92.04
2023-01-19T22:12:46.648Z,91.98
2023-01-19T22:15:51.435Z,91.62
2023-01-19T22:19:00.573Z,91.69
2023-01-19T22:22:03.664Z,91.67
2023-01-19T22:25:07.106Z,91.82
2023-01-19T22:28:10.458Z,91.88
2023-01-19T22:31:17.179Z,92.03
2023-01-19T22:34:20.364Z,91.74
2023-01-19T22:37:23.580Z,91.83
2023-01-19T22:40:27.062Z,91.62
2023-01-19T22:43:30.499Z,91.83
2023-01-19T22:46:35.717Z,91.78
2023-01-19T22:49:38.994Z,91.62
2023-01-19T22:52:42.626Z,91.72
2023-01-19T22:55:45.979Z,91.82
2023-01-19T22:58:49.823Z,91.98
2023-01-19T23:01:53.703Z,91.89
2023-01-19T23:04:57.537Z,91.75
2023-01-19T23:08:00.814Z,91.94
2023-01-19T23:11:06.975Z,92.12
2023-01-19T23:14:15.409Z,91.96
2023-01-19T23:17:19.313Z,92.05
2023-01-19T23:20:22.657Z,92.03
2023-01-19T23:23:25.897Z,91.99
2023-01-19T23:26:31.226Z,92.02
2023-01-19T23:29:35.005Z,92.15
2023-01-19T23:32:38.288Z,92.03
2023-01-19T23:35:41.849Z,92.14
2023-01-19T23:38:51.120Z,92.10
2023-01-19T23:41:54.262Z,91.96
2023-01-19T23:44:57.358Z,91.94
2023-01-19T23:48:00.815Z,91.80
2023-01-19T23:51:11.440Z,91.70
2023-01-19T23:54:14.507Z,91.70
2023-01-19T23:57:38.051Z,91.66
